Time;durP1;ratioP1;P1;durP2;ratioP2;P2;SDS_P1;SDS_P2;PMS_P1;PMS_P2;Temp;Humidity;BMP_temperature;BMP_pressure;BME280_temperature;BME280_humidity;BME280_pressure;Samples;Min_cycle;Max_cycle;Signal;HPM_P1;HPM_P2
2021/06/10 00:00:21;;;;;;;0.90;0.90;;;16.20;99.90;;;;;;5057832;28;20025;-64
2021/06/10 00:02:47;;;;;;;0.82;0.82;;;16.10;99.90;;;;;;5057153;28;20021;-64
2021/06/10 00:05:15;;;;;;;0.95;0.88;;;16.10;99.90;;;;;;5057777;28;20025;-64
2021/06/10 00:07:41;;;;;;;1.40;1.02;;;16.10;99.90;;;;;;5057328;28;20122;-64
2021/06/10 00:10:13;;;;;;;0.70;0.70;;;16.10;99.90;;;;;;5057296;28;20021;-64
2021/06/10 00:12:40;;;;;;;3.70;0.70;;;16.10;99.90;;;;;;5057443;28;20020;-64
2021/06/10 00:15:10;;;;;;;5.53;1.05;;;16.00;99.90;;;;;;5057461;28;20033;-64
2021/06/10 00:17:36;;;;;;;3.90;0.95;;;16.00;99.90;;;;;;5057147;28;20029;-63
2021/06/10 00:20:03;;;;;;;1.00;1.00;;;15.90;99.90;;;;;;5057723;28;20040;-63
2021/06/10 00:22:28;;;;;;;1.00;1.00;;;15.90;99.90;;;;;;5057287;28;20017;-64
2021/06/10 00:24:54;;;;;;;1.00;0.90;;;15.80;99.90;;;;;;5056803;28;20528;-63
2021/06/10 00:27:20;;;;;;;0.90;0.90;;;15.80;99.90;;;;;;5057344;28;20029;-64
2021/06/10 00:29:48;;;;;;;1.88;1.17;;;15.80;99.90;;;;;;5057220;28;20053;-64
2021/06/10 00:32:15;;;;;;;1.17;1.08;;;15.80;99.90;;;;;;5057145;28;20021;-64
2021/06/10 00:34:42;;;;;;;1.35;1.00;;;15.70;99.90;;;;;;5057253;28;20142;-64
2021/06/10 00:37:09;;;;;;;2.00;1.00;;;15.80;99.90;;;;;;5057245;28;20063;-64
2021/06/10 00:39:35;;;;;;;2.15;1.20;;;15.80;99.90;;;;;;5055278;28;20120;-63
2021/06/10 00:42:01;;;;;;;3.33;1.20;;;15.80;99.90;;;;;;5057417;28;20063;-63
2021/06/10 00:44:27;;;;;;;1.25;1.15;;;15.70;99.90;;;;;;5056889;28;20033;-64
2021/06/10 00:46:52;;;;;;;5.30;1.20;;;15.70;99.90;;;;;;5056891;28;20027;-64
2021/06/10 00:49:18;;;;;;;0.90;0.90;;;15.70;99.90;;;;;;5056858;28;20104;-63
2021/06/10 00:51:44;;;;;;;0.80;0.80;;;15.60;99.90;;;;;;5057144;28;20021;-63
2021/06/10 00:54:10;;;;;;;2.25;0.90;;;15.70;99.90;;;;;;5056362;28;20024;-63
2021/06/10 00:56:36;;;;;;;1.17;1.05;;;15.70;99.90;;;;;;5056674;28;20021;-64
2021/06/10 00:59:02;;;;;;;1.30;1.00;;;15.60;99.90;;;;;;5056840;28;20404;-64
2021/06/10 01:01:28;;;;;;;0.82;0.82;;;15.60;99.90;;;;;;5056922;28;20535;-63
2021/06/10 01:03:54;;;;;;;2.97;1.35;;;15.60;99.90;;;;;;5056642;28;20056;-63
2021/06/10 01:06:54;;;;;;;1.65;1.50;;;15.60;99.90;;;;;;5056977;28;20021;-63
2021/06/10 01:09:26;;;;;;;3.42;1.25;;;15.50;99.90;;;;;;5056066;28;20017;-63
2021/06/10 01:12:13;;;;;;;3.90;1.20;;;15.50;99.90;;;;;;5056616;28;20029;-63
2021/06/10 01:15:11;;;;;;;0.93;0.93;;;15.50;99.90;;;;;;5056514;28;20021;-63
2021/06/10 01:17:46;;;;;;;4.40;1.10;;;15.50;99.90;;;;;;5056360;28;20039;-63
2021/06/10 01:20:16;;;;;;;5.15;1.30;;;15.50;99.90;;;;;;5056504;28;20025;-63
2021/06/10 01:22:57;;;;;;;1.83;1.55;;;15.50;99.90;;;;;;5056593;28;20032;-63
2021/06/10 01:25:35;;;;;;;1.40;1.30;;;15.60;99.90;;;;;;5055944;28;20068;-64
2021/06/10 01:28:08;;;;;;;1.25;1.20;;;15.60;99.90;;;;;;5056719;28;20180;-64
2021/06/10 01:30:56;;;;;;;1.45;1.35;;;15.60;99.90;;;;;;5056716;28;20066;-63
2021/06/10 01:33:29;;;;;;;1.02;1.00;;;15.60;99.90;;;;;;5056128;28;20104;-64
2021/06/10 01:35:58;;;;;;;2.30;1.42;;;15.60;99.90;;;;;;5056534;28;20021;-63
2021/06/10 01:38:26;;;;;;;2.90;1.33;;;15.70;99.90;;;;;;5056013;28;20040;-64
2021/06/10 01:40:53;;;;;;;3.40;1.13;;;15.70;99.90;;;;;;5056595;28;20112;-64
2021/06/10 01:43:20;;;;;;;1.40;1.30;;;15.70;99.90;;;;;;5056190;28;20033;-64
2021/06/10 01:45:49;;;;;;;2.85;1.35;;;15.70;99.90;;;;;;5056555;28;20044;-64
2021/06/10 01:48:20;;;;;;;1.30;1.20;;;15.70;99.90;;;;;;5056101;28;20398;-63
2021/06/10 01:50:49;;;;;;;1.38;1.27;;;15.70;99.90;;;;;;5056228;28;20029;-63
2021/06/10 01:53:17;;;;;;;2.40;0.90;;;15.60;99.90;;;;;;5055949;28;20029;-63
2021/06/10 01:55:45;;;;;;;1.98;1.50;;;15.60;99.90;;;;;;5056164;28;20021;-63
2021/06/10 01:58:12;;;;;;;0.90;0.90;;;15.60;99.90;;;;;;5056084;28;20389;-64
2021/06/10 02:00:40;;;;;;;1.55;1.38;;;15.60;99.90;;;;;;5056256;28;20029;-63
2021/06/10 02:03:07;;;;;;;1.00;1.00;;;15.60;99.90;;;;;;5056315;28;20021;-64
2021/06/10 02:05:36;;;;;;;2.13;1.42;;;15.60;99.90;;;;;;5056133;28;20021;-64
2021/06/10 02:08:02;;;;;;;1.00;1.00;;;15.60;99.90;;;;;;5055857;28;20500;-63
2021/06/10 02:10:28;;;;;;;1.13;1.02;;;15.60;99.90;;;;;;5055837;28;20013;-64
2021/06/10 02:12:55;;;;;;;1.40;1.30;;;15.60;99.90;;;;;;5056264;28;20029;-64
2021/06/10 02:15:21;;;;;;;1.92;1.70;;;15.50;99.90;;;;;;5055841;28;20039;-64
2021/06/10 02:17:48;;;;;;;1.42;1.33;;;15.50;99.90;;;;;;5055996;28;20029;-64
2021/06/10 02:20:16;;;;;;;1.55;1.45;;;15.50;99.90;;;;;;5055946;28;20029;-64
2021/06/10 02:22:42;;;;;;;1.48;1.38;;;15.50;99.90;;;;;;5056140;28;20373;-64
2021/06/10 02:25:08;;;;;;;1.85;1.75;;;15.50;99.90;;;;;;5055982;28;20083;-64
2021/06/10 02:27:34;;;;;;;1.40;1.35;;;15.60;99.90;;;;;;5059651;28;20472;-64
2021/06/10 02:30:00;;;;;;;1.73;1.63;;;15.50;99.90;;;;;;5059671;28;20056;-64
2021/06/10 02:32:26;;;;;;;1.65;1.55;;;15.50;99.90;;;;;;5059485;28;20074;-63
2021/06/10 02:34:52;;;;;;;4.03;1.70;;;15.60;99.90;;;;;;5059350;28;20445;-63
2021/06/10 02:37:22;;;;;;;1.80;1.70;;;15.60;99.90;;;;;;5059348;28;20025;-63
2021/06/10 02:39:49;;;;;;;1.75;1.60;;;15.40;99.90;;;;;;5058738;28;20056;-64
2021/06/10 02:42:16;;;;;;;2.15;1.95;;;15.40;99.90;;;;;;5059334;28;20071;-64
2021/06/10 02:44:45;;;;;;;1.80;1.70;;;15.50;99.90;;;;;;5059347;28;20060;-64
2021/06/10 02:47:12;;;;;;;4.22;1.60;;;15.50;99.90;;;;;;5059207;28;20029;-64
2021/06/10 02:49:45;;;;;;;1.92;1.83;;;15.40;99.90;;;;;;5059108;28;20442;-64
2021/06/10 02:52:12;;;;;;;2.00;1.60;;;15.50;99.90;;;;;;5059352;28;20029;-64
2021/06/10 02:54:38;;;;;;;1.85;1.75;;;15.50;99.90;;;;;;5058619;28;20444;-64
2021/06/10 02:57:07;;;;;;;2.10;1.90;;;15.50;99.90;;;;;;5058883;28;20049;-64
2021/06/10 02:59:35;;;;;;;2.10;2.00;;;15.50;99.90;;;;;;5059174;28;20036;-63
2021/06/10 03:02:02;;;;;;;2.72;2.05;;;15.50;99.90;;;;;;5059072;28;20061;-64
2021/06/10 03:04:28;;;;;;;2.00;1.80;;;15.50;99.90;;;;;;5058760;28;20028;-64
2021/06/10 03:06:55;;;;;;;4.50;3.65;;;15.50;99.90;;;;;;5058800;28;20044;-64
2021/06/10 03:09:22;;;;;;;2.58;2.38;;;15.50;99.90;;;;;;5058222;28;20112;-64
2021/06/10 03:11:49;;;;;;;2.47;2.28;;;15.60;99.90;;;;;;5058730;28;20443;-64
2021/06/10 03:14:16;;;;;;;2.75;2.55;;;15.60;99.90;;;;;;5058598;28;20031;-64
2021/06/10 03:16:45;;;;;;;3.58;2.55;;;15.70;99.90;;;;;;5058736;28;20021;-64
2021/06/10 03:19:12;;;;;;;1.95;1.85;;;15.70;99.90;;;;;;5045553;28;20060;-63
2021/06/10 03:21:39;;;;;;;2.47;2.15;;;15.70;99.90;;;;;;5058430;28;20049;-63
2021/06/10 03:24:05;;;;;;;2.95;2.45;;;15.70;99.90;;;;;;5058174;28;20037;-64
2021/06/10 03:26:35;;;;;;;3.03;2.50;;;15.80;99.90;;;;;;5058649;28;20096;-64
2021/06/10 03:29:02;;;;;;;2.58;2.38;;;15.70;99.90;;;;;;5058581;28;20032;-64
2021/06/10 03:31:29;;;;;;;2.47;2.28;;;15.60;99.90;;;;;;5058250;28;20074;-64
2021/06/10 03:33:57;;;;;;;3.97;3.67;;;15.70;99.90;;;;;;5058481;28;20017;-64
2021/06/10 03:36:24;;;;;;;2.08;1.98;;;15.60;99.90;;;;;;5057521;28;20032;-64
2021/06/10 03:38:51;;;;;;;3.60;2.65;;;15.60;99.90;;;;;;5057627;28;20024;-64
2021/06/10 03:41:18;;;;;;;2.95;2.65;;;15.50;99.90;;;;;;5058103;28;20024;-64
2021/06/10 03:43:45;;;;;;;1.90;1.80;;;15.60;99.90;;;;;;5058224;28;20080;-64
2021/06/10 03:46:11;;;;;;;3.08;2.75;;;15.60;99.90;;;;;;5057931;28;20025;-64
2021/06/10 03:48:41;;;;;;;2.40;2.28;;;15.60;99.90;;;;;;5058238;28;20025;-64
2021/06/10 03:51:12;;;;;;;2.33;2.17;;;15.50;99.90;;;;;;5057866;28;20496;-64
2021/06/10 03:53:38;;;;;;;2.47;1.83;;;15.50;99.90;;;;;;5057764;28;20029;-64
2021/06/10 03:56:04;;;;;;;2.28;1.73;;;15.60;99.90;;;;;;5057664;28;20465;-63
2021/06/10 03:58:31;;;;;;;2.17;1.65;;;15.40;99.90;;;;;;5058050;28;20094;-63
2021/06/10 04:00:57;;;;;;;3.70;2.47;;;15.40;99.90;;;;;;5057673;28;20064;-64
2021/06/10 04:03:23;;;;;;;2.70;2.50;;;15.40;99.90;;;;;;5057910;28;20029;-64
2021/06/10 04:05:49;;;;;;;3.70;2.00;;;15.40;99.90;;;;;;5057569;28;20048;-63
2021/06/10 04:08:15;;;;;;;2.40;2.20;;;15.30;99.90;;;;;;5057171;28;20448;-64
2021/06/10 04:10:41;;;;;;;3.45;2.20;;;15.20;99.90;;;;;;5057563;28;20033;-64
2021/06/10 04:13:07;;;;;;;4.40;2.50;;;15.30;99.90;;;;;;5057811;28;20028;-64
2021/06/10 04:15:33;;;;;;;2.28;2.17;;;15.30;99.90;;;;;;5057526;28;20029;-64
2021/06/10 04:17:59;;;;;;;2.40;2.20;;;15.30;99.90;;;;;;5057587;28;20028;-64
2021/06/10 04:20:25;;;;;;;2.45;2.25;;;15.20;99.90;;;;;;5057260;28;20118;-64
2021/06/10 04:22:50;;;;;;;4.35;2.17;;;15.30;99.90;;;;;;5057263;28;20562;-64
2021/06/10 04:25:16;;;;;;;1.77;1.67;;;15.30;99.90;;;;;;5056951;28;20045;-64
2021/06/10 04:27:42;;;;;;;2.63;2.05;;;15.50;99.90;;;;;;5057335;28;20036;-64
2021/06/10 04:30:13;;;;;;;2.22;1.90;;;15.50;99.90;;;;;;5057131;28;20025;-64
2021/06/10 04:32:41;;;;;;;2.55;1.83;;;15.50;99.90;;;;;;5057325;28;20021;-64
2021/06/10 04:35:08;;;;;;;1.98;1.88;;;15.50;99.90;;;;;;5057063;28;20096;-64
2021/06/10 04:37:34;;;;;;;2.70;1.70;;;15.50;99.90;;;;;;5057072;28;20025;-63
2021/06/10 04:39:59;;;;;;;4.00;2.00;;;15.50;99.90;;;;;;5056737;28;20036;-64
2021/06/10 04:42:25;;;;;;;1.75;1.65;;;15.50;99.90;;;;;;5057124;28;20052;-64
2021/06/10 04:44:51;;;;;;;2.28;2.17;;;15.40;99.90;;;;;;5056883;28;20448;-63
2021/06/10 04:47:17;;;;;;;2.40;2.20;;;15.50;99.90;;;;;;5057034;28;20024;-63
2021/06/10 04:49:44;;;;;;;2.13;1.92;;;15.60;99.90;;;;;;5056502;28;20461;-64
2021/06/10 04:52:11;;;;;;;1.88;1.77;;;15.50;99.90;;;;;;5057056;28;20100;-64
2021/06/10 04:54:37;;;;;;;2.55;2.35;;;15.60;99.90;;;;;;5056384;28;20028;-64
2021/06/10 04:57:03;;;;;;;2.88;2.67;;;15.60;99.90;;;;;;5056885;28;20565;-64
2021/06/10 04:59:30;;;;;;;3.88;2.28;;;15.70;99.90;;;;;;5055513;28;20036;-64
2021/06/10 05:01:56;;;;;;;1.92;1.83;;;15.70;99.90;;;;;;5056851;28;20381;-64
2021/06/10 05:04:22;;;;;;;2.25;2.08;;;15.80;99.90;;;;;;5056588;28;20060;-64
2021/06/10 05:06:50;;;;;;;2.10;1.98;;;15.90;99.90;;;;;;5056528;28;20111;-66
2021/06/10 05:09:16;;;;;;;2.53;2.33;;;15.90;99.90;;;;;;5049587;28;20393;-70
2021/06/10 05:11:42;;;;;;;2.63;2.42;;;16.00;99.90;;;;;;5041509;28;20025;-69
2021/06/10 05:14:08;;;;;;;3.40;3.10;;;16.00;99.90;;;;;;5057938;28;20021;-69
2021/06/10 05:16:34;;;;;;;4.07;2.20;;;16.10;99.90;;;;;;5055737;28;20021;-69
2021/06/10 05:19:00;;;;;;;2.60;2.40;;;16.00;99.90;;;;;;5062996;28;20032;-69
2021/06/10 05:21:26;;;;;;;2.47;2.28;;;16.10;99.90;;;;;;5056453;28;20074;-69
2021/06/10 05:23:52;;;;;;;2.65;2.45;;;16.20;99.90;;;;;;5055459;28;20048;-69
2021/06/10 05:26:18;;;;;;;2.97;2.67;;;16.30;99.90;;;;;;5059541;28;20094;-69
2021/06/10 05:28:44;;;;;;;3.00;2.80;;;16.40;99.90;;;;;;5056161;28;20033;-69
2021/06/10 05:31:10;;;;;;;3.17;2.55;;;16.40;99.90;;;;;;5056057;28;20021;-69
2021/06/10 05:33:36;;;;;;;3.80;2.85;;;16.40;99.90;;;;;;5055820;28;20451;-65
2021/06/10 05:36:03;;;;;;;3.90;2.92;;;16.40;99.90;;;;;;5055525;28;20028;-65
2021/06/10 05:38:29;;;;;;;3.85;2.90;;;16.40;99.90;;;;;;5057897;28;20025;-65
2021/06/10 05:40:55;;;;;;;2.75;2.53;;;16.40;99.90;;;;;;5056351;28;20021;-65
2021/06/10 05:43:24;;;;;;;3.38;3.08;;;16.40;99.90;;;;;;5056277;28;20029;-65
2021/06/10 05:45:51;;;;;;;2.63;2.42;;;16.40;99.90;;;;;;5056606;28;20031;-65
2021/06/10 05:48:18;;;;;;;3.10;2.80;;;16.40;99.90;;;;;;5056071;28;20404;-65
2021/06/10 05:50:47;;;;;;;2.40;2.20;;;16.50;99.90;;;;;;5056455;28;20025;-65
2021/06/10 05:53:17;;;;;;;3.08;2.88;;;16.60;99.90;;;;;;5055895;28;20481;-65
2021/06/10 05:55:46;;;;;;;3.17;2.88;;;16.80;99.90;;;;;;5056253;28;20048;-65
2021/06/10 05:58:12;;;;;;;3.33;2.97;;;17.00;99.90;;;;;;5056162;28;20032;-65
2021/06/10 06:00:38;;;;;;;2.70;2.50;;;17.20;99.90;;;;;;5057724;28;20084;-65
2021/06/10 06:03:06;;;;;;;4.05;2.85;;;17.50;99.90;;;;;;5059978;28;20083;-65
2021/06/10 06:05:32;;;;;;;2.50;2.30;;;17.80;99.90;;;;;;5060318;28;20048;-65
2021/06/10 06:07:59;;;;;;;10.23;2.92;;;17.90;99.90;;;;;;5059633;28;20036;-65
2021/06/10 06:10:29;;;;;;;2.42;2.25;;;17.90;99.90;;;;;;5059835;28;20422;-65
2021/06/10 06:12:57;;;;;;;2.90;2.60;;;18.00;99.90;;;;;;5059685;28;20119;-65
2021/06/10 06:15:23;;;;;;;2.83;2.28;;;18.10;99.90;;;;;;5059757;28;20036;-65
2021/06/10 06:17:50;;;;;;;2.08;1.98;;;18.20;99.90;;;;;;5059788;28;20060;-65
2021/06/10 06:20:16;;;;;;;3.22;2.40;;;18.20;99.90;;;;;;5059826;28;20032;-65
2021/06/10 06:22:45;;;;;;;2.33;2.13;;;18.10;99.90;;;;;;5059427;28;20397;-65
2021/06/10 06:25:16;;;;;;;7.57;2.70;;;18.00;99.90;;;;;;5059231;28;20401;-65
2021/06/10 06:27:42;;;;;;;2.60;2.25;;;17.80;99.90;;;;;;5059516;28;20029;-65
2021/06/10 06:30:09;;;;;;;2.85;2.65;;;17.70;99.90;;;;;;5059370;28;20444;-65
2021/06/10 06:32:36;;;;;;;3.08;2.50;;;17.70;99.90;;;;;;5059741;28;20036;-65
2021/06/10 06:35:04;;;;;;;3.13;2.67;;;17.70;99.90;;;;;;5059403;28;20025;-65
2021/06/10 06:37:30;;;;;;;2.40;2.20;;;17.80;99.90;;;;;;5059589;28;20036;-65
2021/06/10 06:39:57;;;;;;;3.47;2.67;;;17.80;99.90;;;;;;5059184;28;20106;-65
2021/06/10 06:42:22;;;;;;;2.58;2.38;;;18.10;99.90;;;;;;5059540;28;20127;-65
2021/06/10 06:44:49;;;;;;;2.53;2.10;;;18.30;99.90;;;;;;5059391;28;20109;-65
2021/06/10 06:47:14;;;;;;;2.30;2.10;;;18.40;99.90;;;;;;5059175;28;20033;-65
2021/06/10 06:49:40;;;;;;;6.68;2.20;;;18.70;99.90;;;;;;5059189;28;20021;-65
2021/06/10 06:52:07;;;;;;;2.35;2.15;;;18.80;99.90;;;;;;5059184;28;20553;-65
2021/06/10 06:54:32;;;;;;;3.22;2.17;;;18.70;99.90;;;;;;5058900;28;20013;-65
2021/06/10 06:56:58;;;;;;;3.22;2.92;;;18.70;99.90;;;;;;5059133;28;20017;-65
2021/06/10 06:59:24;;;;;;;3.42;2.63;;;18.50;99.90;;;;;;5058865;28;20028;-65
2021/06/10 07:01:50;;;;;;;2.40;2.20;;;18.50;99.90;;;;;;5059135;28;20025;-65
2021/06/10 07:04:16;;;;;;;3.25;2.28;;;18.70;99.90;;;;;;5058749;28;20052;-65
2021/06/10 07:06:42;;;;;;;2.35;2.13;;;18.90;99.90;;;;;;5058886;28;20083;-65
2021/06/10 07:09:08;;;;;;;3.20;2.50;;;19.00;99.90;;;;;;5058305;28;20025;-65
2021/06/10 07:11:35;;;;;;;2.95;2.35;;;19.00;99.90;;;;;;5058762;28;20047;-65
2021/06/10 07:14:02;;;;;;;3.00;2.70;;;19.30;99.90;;;;;;5058934;28;20032;-65
2021/06/10 07:16:28;;;;;;;3.45;2.40;;;19.80;99.90;;;;;;5058940;28;20032;-65
2021/06/10 07:18:54;;;;;;;3.33;2.17;;;20.50;99.90;;;;;;5058614;28;20029;-65
2021/06/10 07:21:20;;;;;;;2.97;1.98;;;20.80;99.90;;;;;;5058681;28;20444;-65
2021/06/10 07:23:46;;;;;;;2.95;1.77;;;21.00;99.90;;;;;;5058002;28;20056;-65
2021/06/10 07:26:12;;;;;;;1.85;1.67;;;21.70;99.90;;;;;;5058481;28;20028;-65
2021/06/10 07:28:38;;;;;;;2.30;2.10;;;21.40;99.90;;;;;;5058269;28;20025;-65
2021/06/10 07:31:04;;;;;;;7.43;2.55;;;21.20;99.90;;;;;;5058439;28;20025;-65
2021/06/10 07:33:30;;;;;;;2.95;2.30;;;21.20;99.90;;;;;;5058360;28;20033;-65
2021/06/10 07:35:55;;;;;;;2.40;2.20;;;21.00;99.90;;;;;;5058285;28;20385;-65
2021/06/10 07:38:21;;;;;;;2.42;2.22;;;21.00;99.90;;;;;;5057791;28;20460;-65
2021/06/10 07:40:47;;;;;;;1.98;1.73;;;21.20;99.90;;;;;;5058263;28;20025;-65
2021/06/10 07:43:13;;;;;;;4.43;2.15;;;21.40;99.90;;;;;;5058152;28;20036;-65
2021/06/10 07:45:39;;;;;;;2.25;2.05;;;21.70;99.90;;;;;;5058224;28;20013;-65
2021/06/10 07:48:05;;;;;;;1.58;1.48;;;21.90;99.90;;;;;;5057938;28;20111;-65
2021/06/10 07:50:32;;;;;;;1.80;1.70;;;21.90;99.90;;;;;;5058392;28;20059;-65
2021/06/10 07:52:58;;;;;;;1.85;1.65;;;21.60;99.90;;;;;;5057882;28;20025;-65
2021/06/10 07:55:24;;;;;;;2.20;1.58;;;21.50;99.90;;;;;;5057989;28;20028;-65
2021/06/10 07:57:51;;;;;;;2.13;2.03;;;21.60;99.90;;;;;;5057680;28;20052;-65
2021/06/10 08:00:18;;;;;;;1.83;1.73;;;21.90;99.90;;;;;;5057899;28;20052;-65
2021/06/10 08:02:44;;;;;;;3.35;1.70;;;22.20;99.90;;;;;;5057793;28;20021;-65
2021/06/10 08:05:12;;;;;;;2.97;1.88;;;22.50;99.90;;;;;;5057980;28;20063;-65
2021/06/10 08:07:42;;;;;;;3.08;1.10;;;23.00;99.90;;;;;;5057500;28;20052;-65
2021/06/10 08:10:09;;;;;;;1.42;1.25;;;23.20;99.90;;;;;;5057435;28;20515;-65
2021/06/10 08:12:35;;;;;;;1.17;1.08;;;23.20;99.90;;;;;;5057626;28;20029;-65
2021/06/10 08:15:01;;;;;;;2.92;1.38;;;23.20;99.90;;;;;;5057826;28;20036;-66
2021/06/10 08:17:27;;;;;;;2.65;1.38;;;23.30;99.90;;;;;;5057603;28;20033;-65
2021/06/10 08:19:53;;;;;;;1.48;0.82;;;23.10;99.90;;;;;;5057613;28;20040;-65
2021/06/10 08:22:19;;;;;;;1.85;1.13;;;23.30;99.90;;;;;;5057154;28;20040;-65
2021/06/10 08:24:44;;;;;;;1.27;0.70;;;23.70;99.90;;;;;;5056216;28;20044;-65
2021/06/10 08:27:10;;;;;;;3.13;0.88;;;23.80;99.90;;;;;;5057334;28;20520;-66
2021/06/10 08:29:36;;;;;;;2.17;0.93;;;23.70;99.90;;;;;;5057305;28;20385;-66
2021/06/10 08:32:02;;;;;;;2.58;0.93;;;23.80;99.90;;;;;;5057513;28;20021;-66
2021/06/10 08:34:28;;;;;;;1.10;0.60;;;24.40;99.90;;;;;;5057514;28;20025;-65
2021/06/10 08:36:54;;;;;;;1.00;0.60;;;24.80;99.90;;;;;;5057189;28;20067;-65
2021/06/10 08:39:20;;;;;;;1.25;0.70;;;25.70;99.90;;;;;;5056765;28;20066;-66
2021/06/10 08:41:46;;;;;;;2.25;0.50;;;27.10;99.90;;;;;;5057155;28;20021;-66
2021/06/10 08:44:12;;;;;;;0.52;0.30;;;28.30;99.90;;;;;;5057033;28;20029;-66
2021/06/10 08:46:39;;;;;;;0.90;0.40;;;29.10;99.90;;;;;;5057225;28;20025;-66
2021/06/10 08:49:06;;;;;;;0.47;0.40;;;29.40;98.80;;;;;;5056782;28;20498;-66
2021/06/10 08:51:32;;;;;;;0.80;0.32;;;29.10;97.40;;;;;;5057403;28;20096;-66
2021/06/10 08:53:58;;;;;;;1.10;0.30;;;28.70;97.50;;;;;;5056850;28;20021;-66
2021/06/10 08:56:28;;;;;;;0.45;0.45;;;28.40;98.50;;;;;;5057152;28;20025;-66
2021/06/10 08:58:54;;;;;;;0.50;0.40;;;28.00;98.60;;;;;;5056680;28;20435;-66
2021/06/10 09:01:20;;;;;;;0.98;0.30;;;27.80;98.60;;;;;;5056885;28;20025;-66
2021/06/10 09:03:46;;;;;;;0.30;0.28;;;27.40;97.70;;;;;;5056719;28;20025;-66
2021/06/10 09:06:16;;;;;;;1.60;0.50;;;26.80;98.20;;;;;;5056678;28;20021;-66
2021/06/10 09:08:44;;;;;;;5.05;0.65;;;26.50;99.50;;;;;;5056311;28;20029;-66
2021/06/10 09:11:18;;;;;;;0.82;0.40;;;26.40;99.80;;;;;;5056817;28;20112;-66
2021/06/10 09:13:55;;;;;;;0.50;0.40;;;26.40;99.40;;;;;;5056581;28;20066;-66
2021/06/10 09:16:29;;;;;;;0.55;0.30;;;26.20;99.50;;;;;;5056614;28;20056;-66
2021/06/10 09:19:08;;;;;;;1.20;0.50;;;26.30;99.90;;;;;;5043491;28;20021;-66
2021/06/10 09:21:47;;;;;;;1.02;0.40;;;26.30;99.90;;;;;;5056458;28;20025;-66
2021/06/10 09:24:19;;;;;;;1.38;0.40;;;26.30;99.90;;;;;;5056099;28;20052;-66
2021/06/10 09:26:47;;;;;;;1.98;0.30;;;26.30;99.80;;;;;;5056261;28;20113;-66
2021/06/10 09:29:13;;;;;;;0.63;0.35;;;26.20;99.90;;;;;;5056759;28;20064;-66
2021/06/10 09:31:41;;;;;;;1.88;0.95;;;26.30;99.90;;;;;;5056400;28;20087;-66
2021/06/10 09:34:12;;;;;;;1.88;0.50;;;26.40;99.90;;;;;;5056374;28;20048;-66
2021/06/10 09:36:47;;;;;;;1.60;0.40;;;26.40;99.60;;;;;;5059725;28;20029;-66
2021/06/10 09:39:23;;;;;;;0.75;0.20;;;26.40;99.80;;;;;;5060251;28;20388;-66
2021/06/10 09:41:58;;;;;;;0.88;0.45;;;26.50;99.90;;;;;;5060610;28;20117;-66
2021/06/10 09:45:05;;;;;;;0.37;0.30;;;26.70;99.90;;;;;;5060307;28;20031;-66
2021/06/10 09:47:46;;;;;;;1.20;0.40;;;26.70;99.10;;;;;;5060475;28;20279;-65
2021/06/10 09:50:22;;;;;;;2.03;0.30;;;26.70;99.60;;;;;;5060443;28;20029;-66
2021/06/10 09:52:55;;;;;;;1.02;0.30;;;27.30;99.90;;;;;;5059938;28;20481;-66
2021/06/10 09:55:49;;;;;;;0.32;0.20;;;28.20;99.90;;;;;;5060378;28;20074;-66
2021/06/10 09:58:15;;;;;;;0.70;0.30;;;28.80;97.80;;;;;;5060021;28;20033;-66
2021/06/10 10:00:49;;;;;;;2.80;0.47;;;28.50;96.70;;;;;;5060040;28;20036;-66
2021/06/10 10:03:24;;;;;;;0.50;0.30;;;28.70;97.00;;;;;;5060073;28;20043;-66
2021/06/10 10:06:06;;;;;;;0.63;0.30;;;28.70;95.50;;;;;;5059918;28;20039;-66
2021/06/10 10:08:34;;;;;;;2.20;0.30;;;28.80;95.40;;;;;;5059519;28;20103;-66
2021/06/10 10:11:03;;;;;;;0.60;0.20;;;29.30;94.40;;;;;;5059981;28;20429;-66
2021/06/10 10:13:31;;;;;;;0.30;0.20;;;29.70;93.30;;;;;;5059965;28;20021;-66
2021/06/10 10:16:04;;;;;;;2.30;0.35;;;30.20;92.50;;;;;;5060026;28;20024;-66
2021/06/10 10:18:30;;;;;;;0.10;0.10;;;29.90;90.80;;;;;;5059720;28;20025;-66
2021/06/10 10:21:04;;;;;;;0.70;0.30;;;29.70;92.10;;;;;;5060027;28;20028;-66
2021/06/10 10:23:31;;;;;;;0.43;0.20;;;30.90;93.10;;;;;;5059427;28;20029;-66
2021/06/10 10:25:59;;;;;;;0.22;0.20;;;32.40;91.30;;;;;;5059889;28;20393;-66
2021/06/10 10:28:28;;;;;;;0.15;0.15;;;33.40;89.30;;;;;;5059304;28;20504;-66
2021/06/10 10:30:55;;;;;;;1.05;0.30;;;34.10;83.20;;;;;;5059573;28;20103;-66
2021/06/10 10:33:23;;;;;;;0.38;0.10;;;34.30;83.40;;;;;;5059404;28;20017;-66
2021/06/10 10:36:01;;;;;;;0.82;0.20;;;34.90;83.20;;;;;;5059612;28;20024;-66
2021/06/10 10:38:44;;;;;;;0.60;0.40;;;35.80;78.90;;;;;;5059342;28;20024;-66
2021/06/10 10:41:15;;;;;;;0.47;0.30;;;35.20;74.80;;;;;;5059995;28;20497;-66
2021/06/10 10:43:41;;;;;;;0.20;0.20;;;33.10;73.90;;;;;;5059518;28;20025;-66
2021/06/10 10:46:08;;;;;;;1.25;0.20;;;31.90;78.30;;;;;;5057159;28;20037;-66
2021/06/10 10:48:43;;;;;;;0.45;0.20;;;30.90;78.40;;;;;;5059425;28;20029;-66
2021/06/10 10:51:33;;;;;;;1.20;0.25;;;30.90;81.50;;;;;;5059144;28;20017;-66
2021/06/10 10:54:01;;;;;;;0.30;0.30;;;31.40;77.10;;;;;;5058753;28;20501;-66
2021/06/10 10:56:39;;;;;;;0.65;0.57;;;30.90;77.70;;;;;;5059208;28;20033;-66
2021/06/10 10:59:15;;;;;;;0.20;0.20;;;30.00;80.40;;;;;;5056604;28;20081;-66
2021/06/10 11:02:00;;;;;;;0.35;0.28;;;30.10;82.20;;;;;;5058918;28;20059;-66
2021/06/10 11:04:52;;;;;;;0.57;0.20;;;31.40;79.80;;;;;;5059190;28;20028;-66
2021/06/10 11:07:36;;;;;;;0.30;0.30;;;32.20;80.10;;;;;;5058837;28;20116;-66
2021/06/10 11:10:35;;;;;;;0.22;0.20;;;33.70;77.40;;;;;;5058734;28;20396;-66
2021/06/10 11:13:16;;;;;;;0.43;0.32;;;33.40;75.00;;;;;;5058862;28;20031;-66
2021/06/10 11:15:46;;;;;;;0.75;0.43;;;32.50;76.60;;;;;;5058916;28;20029;-66
2021/06/10 11:18:12;;;;;;;0.20;0.20;;;32.10;77.90;;;;;;5058381;28;20119;-66
2021/06/10 11:20:38;;;;;;;0.68;0.20;;;31.90;78.80;;;;;;5058660;28;20500;-66
2021/06/10 11:23:19;;;;;;;0.50;0.35;;;31.70;80.20;;;;;;5058183;28;20033;-66
2021/06/10 11:25:47;;;;;;;0.60;0.30;;;31.30;79.60;;;;;;5058626;28;20409;-66
2021/06/10 11:28:17;;;;;;;1.08;0.38;;;30.90;79.80;;;;;;5058284;28;20489;-66
2021/06/10 11:30:46;;;;;;;2.53;0.45;;;30.60;80.60;;;;;;5058551;28;20029;-66
2021/06/10 11:33:33;;;;;;;5.00;0.88;;;30.10;80.00;;;;;;5058328;28;20102;-66
2021/06/10 11:36:04;;;;;;;0.95;0.45;;;29.00;80.40;;;;;;5058544;28;20021;-66
2021/06/10 11:38:42;;;;;;;4.43;0.40;;;28.20;82.80;;;;;;5058207;28;20058;-66
2021/06/10 11:41:13;;;;;;;2.25;0.50;;;28.30;84.40;;;;;;5058226;28;20039;-65
2021/06/10 11:43:46;;;;;;;0.52;0.50;;;28.80;82.80;;;;;;5058506;28;20035;-66
2021/06/10 11:46:17;;;;;;;1.55;0.30;;;28.80;83.10;;;;;;5057932;28;20540;-66
2021/06/10 11:48:48;;;;;;;0.47;0.35;;;29.30;85.80;;;;;;5058072;28;20020;-66
2021/06/10 11:51:30;;;;;;;2.15;0.57;;;30.20;85.50;;;;;;5057932;28;20452;-66
2021/06/10 11:54:10;;;;;;;0.45;0.45;;;32.10;84.90;;;;;;5057795;28;20025;-66
2021/06/10 11:56:36;;;;;;;0.28;0.28;;;34.10;77.80;;;;;;5058183;28;20075;-66
2021/06/10 11:59:27;;;;;;;2.22;0.40;;;33.70;75.60;;;;;;5053332;28;20029;-66
2021/06/10 12:02:05;;;;;;;2.08;0.30;;;33.30;76.50;;;;;;5058073;28;20033;-66
2021/06/10 12:04:33;;;;;;;0.75;0.30;;;33.50;76.20;;;;;;5058108;28;20017;-66
2021/06/10 12:07:10;;;;;;;0.68;0.20;;;33.90;75.30;;;;;;5057665;28;20040;-66
2021/06/10 12:09:51;;;;;;;1.75;0.57;;;34.00;76.10;;;;;;5057394;28;20009;-66
2021/06/10 12:12:42;;;;;;;0.52;0.30;;;34.60;76.30;;;;;;5057578;28;20072;-66
2021/06/10 12:15:23;;;;;;;2.30;0.25;;;35.90;74.20;;;;;;5057782;28;20021;-66
2021/06/10 12:17:53;;;;;;;0.30;0.20;;;36.80;72.20;;;;;;5057443;28;20089;-66
2021/06/10 12:20:24;;;;;;;0.95;0.28;;;37.80;71.40;;;;;;5057395;28;20025;-66
2021/06/10 12:22:50;;;;;;;0.28;0.20;;;37.90;68.70;;;;;;5057147;28;20111;-66
2021/06/10 12:25:26;;;;;;;1.10;0.17;;;38.10;68.90;;;;;;5057052;28;20076;-66
2021/06/10 12:27:58;;;;;;;0.35;0.30;;;38.70;68.10;;;;;;5057334;28;20041;-66
2021/06/10 12:30:30;;;;;;;1.73;0.30;;;38.50;65.10;;;;;;5057333;28;20029;-66
2021/06/10 12:33:17;;;;;;;0.20;0.20;;;38.70;65.80;;;;;;5057219;28;20047;-66
2021/06/10 12:35:46;;;;;;;2.13;0.30;;;39.20;62.90;;;;;;5057023;28;20104;-67
2021/06/10 12:38:13;;;;;;;0.50;0.40;;;39.30;60.80;;;;;;5056760;28;20035;-66
2021/06/10 12:40:41;;;;;;;0.52;0.20;;;39.00;61.90;;;;;;5057234;28;20028;-66
2021/06/10 12:43:19;;;;;;;2.40;0.20;;;39.10;61.10;;;;;;5056931;28;20098;-66
2021/06/10 12:45:47;;;;;;;1.30;0.25;;;39.20;62.00;;;;;;5057107;28;20041;-66
2021/06/10 12:48:24;;;;;;;0.57;0.40;;;40.00;63.10;;;;;;5056920;28;20033;-67
2021/06/10 12:50:51;;;;;;;2.00;0.20;;;40.40;59.80;;;;;;5056792;28;20033;-67
2021/06/10 12:53:17;;;;;;;0.60;0.30;;;39.40;58.70;;;;;;5056572;28;20477;-66
2021/06/10 12:55:44;;;;;;;0.55;0.20;;;38.20;60.80;;;;;;5056805;28;20579;-66
2021/06/10 12:58:14;;;;;;;1.73;0.50;;;38.00;63.10;;;;;;5056908;28;20060;-66